createdAt,value
2023-03-05T00:02:22.198Z,4.30
2023-03-05T00:07:24.028Z,4.38
2023-03-05T00:12:25.678Z,4.37
2023-03-05T00:17:27.212Z,4.35
2023-03-05T00:22:28.833Z,4.31
2023-03-05T00:27:30.630Z,4.28
2023-03-05T00:32:32.258Z,4.11
2023-03-05T00:37:34.059Z,4.20
2023-03-05T00:42:38.749Z,4.24
2023-03-05T00:47:40.500Z,4.18
2023-03-05T00:52:42.025Z,4.13
2023-03-05T00:57:43.855Z,4.20
2023-03-05T01:02:45.943Z,4.24
2023-03-05T01:07:47.482Z,4.08
2023-03-05T01:12:49.663Z,4.13
2023-03-05T01:17:51.961Z,4.28
2023-03-05T01:22:54.040Z,4.18
2023-03-05T01:27:55.607Z,4.14
2023-03-05T01:32:57.356Z,4.21
2023-03-05T01:37:59.156Z,4.19
2023-03-05T01:43:19.906Z,4.18
2023-03-05T01:48:21.718Z,4.09
2023-03-05T01:53:23.466Z,4.12
2023-03-05T01:58:25.730Z,4.08
2023-03-05T02:03:27.425Z,4.17
2023-03-05T02:08:28.998Z,4.10
2023-03-05T02:13:36.055Z,4.01
2023-03-05T02:18:37.710Z,3.98
2023-03-05T02:23:40.252Z,3.87
2023-03-05T02:28:53.810Z,4.12
2023-03-05T02:33:57.744Z,4.10
2023-03-05T02:39:00.870Z,4.12
2023-03-05T02:44:02.602Z,3.99
2023-03-05T02:49:04.630Z,4.09
2023-03-05T02:54:07.190Z,4.01
2023-03-05T02:59:09.200Z,4.06
2023-03-05T03:04:11.031Z,3.93
2023-03-05T03:09:12.598Z,3.88
2023-03-05T03:14:14.152Z,3.89
2023-03-05T03:19:18.689Z,3.94
2023-03-05T03:24:20.558Z,3.90
2023-03-05T03:29:22.256Z,3.85
2023-03-05T03:34:24.286Z,4.11
2023-03-05T03:39:26.017Z,4.04
2023-03-05T03:44:27.692Z,3.95
2023-03-05T03:49:29.272Z,3.79
2023-03-05T03:54:30.844Z,3.79
2023-03-05T03:59:32.637Z,3.88
2023-03-05T04:04:34.229Z,3.71
2023-03-05T04:09:35.788Z,3.76
2023-03-05T04:14:37.367Z,3.85
2023-03-05T04:19:39.868Z,3.74
2023-03-05T04:24:41.979Z,3.89
2023-03-05T04:29:43.760Z,3.79
2023-03-05T04:34:45.308Z,3.88
2023-03-05T04:39:47.396Z,3.69
2023-03-05T04:44:50.156Z,3.76
2023-03-05T04:49:51.820Z,3.80
2023-03-05T04:54:54.529Z,3.81
2023-03-05T04:59:56.188Z,3.84
2023-03-05T05:04:57.742Z,3.77
2023-03-05T05:09:59.297Z,3.77
2023-03-05T05:15:01.065Z,3.88
2023-03-05T05:20:08.206Z,3.94
2023-03-05T05:25:10.767Z,3.74
2023-03-05T05:30:12.991Z,3.85
2023-03-05T05:35:14.569Z,3.85
2023-03-05T05:40:16.178Z,3.83
2023-03-05T05:45:17.965Z,3.87
2023-03-05T05:50:20.445Z,3.85
2023-03-05T05:55:22.206Z,3.68
2023-03-05T06:00:24.160Z,3.82
2023-03-05T06:05:25.894Z,3.89
2023-03-05T06:10:27.491Z,3.84
2023-03-05T06:15:29.120Z,3.92
2023-03-05T06:20:30.689Z,3.94
2023-03-05T06:25:32.213Z,3.97
2023-03-05T06:30:33.813Z,4.06
2023-03-05T06:35:38.283Z,4.02
2023-03-05T06:40:40.179Z,4.04
2023-03-05T06:45:42.300Z,4.03
2023-03-05T06:50:44.027Z,4.07
2023-03-05T06:55:45.659Z,4.19
2023-03-05T07:00:47.509Z,4.38
2023-03-05T07:05:49.609Z,4.48
2023-03-05T07:10:54.221Z,4.37
2023-03-05T07:15:55.842Z,4.23
2023-03-05T07:21:02.328Z,4.47
2023-03-05T07:26:05.916Z,4.20
2023-03-05T07:31:12.339Z,4.26
2023-03-05T07:36:15.038Z,4.16
2023-03-05T07:41:23.618Z,3.68
2023-03-05T07:46:29.655Z,4.21
2023-03-05T07:51:31.400Z,4.34
2023-03-05T07:56:35.505Z,4.35
2023-03-05T08:01:38.755Z,4.72
2023-03-05T08:06:41.517Z,4.79
2023-03-05T08:11:43.357Z,4.85
2023-03-05T08:16:47.254Z,4.76
2023-03-05T08:21:49.862Z,5.21
2023-03-05T08:26:58.003Z,4.89
2023-03-05T08:31:59.708Z,4.94
2023-03-05T08:37:01.525Z,5.32
2023-03-05T08:42:04.247Z,5.39
2023-03-05T08:47:06.007Z,5.48
2023-03-05T08:52:07.648Z,5.45
2023-03-05T08:57:11.495Z,5.34
2023-03-05T09:02:13.426Z,5.71
2023-03-05T09:07:15.074Z,5.58
2023-03-05T09:12:16.652Z,5.78
2023-03-05T09:17:20.755Z,5.78
2023-03-05T09:22:22.475Z,5.95
2023-03-05T09:27:24.513Z,5.71
2023-03-05T09:32:26.045Z,5.69
2023-03-05T09:37:29.407Z,6.57
2023-03-05T09:42:43.587Z,7.61
2023-03-05T09:47:54.440Z,7.86
2023-03-05T09:53:02.785Z,7.83
2023-03-05T09:58:11.505Z,6.78
2023-03-05T10:03:19.734Z,6.59
2023-03-05T10:08:28.632Z,7.17
2023-03-05T10:13:36.903Z,7.67
2023-03-05T10:18:53.940Z,7.67
2023-03-05T10:24:19.268Z,7.84
2023-03-05T10:29:20.907Z,9.48
2023-03-05T10:34:40.937Z,8.30
2023-03-05T10:39:59.225Z,7.87
2023-03-05T10:45:14.011Z,7.39
2023-03-05T10:50:21.881Z,7.91
2023-03-05T10:55:23.672Z,8.01
2023-03-05T11:00:32.282Z,8.57
2023-03-05T11:05:47.812Z,8.85
2023-03-05T11:11:04.213Z,8.20
2023-03-05T11:16:07.565Z,8.42
2023-03-05T11:21:11.865Z,8.38
2023-03-05T11:26:13.389Z,8.60
2023-03-05T11:31:18.551Z,8.29
2023-03-05T11:36:38.900Z,9.27
2023-03-05T11:41:53.100Z,8.82
2023-03-05T11:47:02.408Z,8.32
2023-03-05T11:52:16.347Z,8.47
2023-03-05T11:57:20.129Z,9.12
2023-03-05T12:02:27.715Z,8.51
2023-03-05T12:07:37.427Z,8.32
2023-03-05T12:12:53.809Z,8.21
2023-03-05T12:18:09.728Z,8.26
2023-03-05T12:23:18.106Z,8.31
2023-03-05T12:28:31.866Z,7.91
2023-03-05T12:33:41.767Z,7.55
2023-03-05T12:38:54.199Z,7.10
2023-03-05T12:44:04.842Z,6.83
2023-03-05T12:49:27.061Z,6.28
2023-03-05T12:54:39.770Z,6.70
2023-03-05T12:59:46.733Z,6.46
2023-03-05T13:04:48.751Z,6.73
2023-03-05T13:09:58.175Z,6.85
2023-03-05T13:14:59.747Z,7.45
2023-03-05T13:20:22.310Z,8.03
2023-03-05T13:25:23.956Z,7.18
2023-03-05T13:30:28.837Z,7.09
2023-03-05T13:35:34.604Z,6.81
2023-03-05T13:40:36.168Z,7.13
2023-03-05T13:45:38.043Z,7.41
2023-03-05T13:50:41.078Z,7.65
2023-03-05T13:55:42.755Z,7.31
2023-03-05T14:00:44.919Z,7.42
2023-03-05T14:05:48.116Z,7.37
2023-03-05T14:10:51.189Z,8.03
2023-03-05T14:16:11.255Z,8.78
2023-03-05T14:21:13.113Z,8.41
2023-03-05T14:26:21.008Z,8.01
2023-03-05T14:31:23.017Z,8.37
2023-03-05T14:36:29.063Z,8.71
2023-03-05T14:41:40.504Z,7.55
2023-03-05T14:46:43.695Z,8.02
2023-03-05T14:51:46.697Z,7.81
2023-03-05T14:56:49.741Z,7.42
2023-03-05T15:01:51.564Z,7.42
2023-03-05T15:06:53.540Z,7.54
2023-03-05T15:11:55.086Z,7.21
2023-03-05T15:16:57.041Z,7.58
2023-03-05T15:21:58.608Z,7.41
2023-03-05T15:27:00.193Z,7.55
2023-03-05T15:32:02.408Z,8.06
2023-03-05T15:37:04.471Z,7.90
2023-03-05T15:42:06.642Z,7.35
2023-03-05T15:47:08.314Z,7.22
2023-03-05T15:52:09.980Z,7.20
2023-03-05T15:57:12.747Z,6.98
2023-03-05T16:02:14.471Z,7.11
2023-03-05T16:07:16.304Z,7.23
2023-03-05T16:12:22.630Z,7.35
2023-03-05T16:17:25.102Z,6.90
2023-03-05T16:22:26.822Z,6.76
2023-03-05T16:27:29.402Z,6.94
2023-03-05T16:32:31.050Z,7.04
2023-03-05T16:37:33.099Z,6.59
2023-03-05T16:42:34.718Z,6.37
2023-03-05T16:47:36.469Z,6.40
2023-03-05T16:52:38.698Z,6.33
2023-03-05T16:57:40.572Z,6.25
2023-03-05T17:02:42.282Z,6.05
2023-03-05T17:07:45.443Z,5.77
2023-03-05T17:12:47.485Z,5.77
2023-03-05T17:17:49.258Z,5.61
2023-03-05T17:22:50.783Z,5.17
2023-03-05T17:27:52.509Z,5.16
2023-03-05T17:32:54.212Z,5.02
2023-03-05T17:37:56.062Z,5.38
2023-03-05T17:42:57.604Z,5.28
2023-03-05T17:47:59.100Z,4.95
2023-03-05T17:53:00.694Z,4.95
2023-03-05T17:58:02.306Z,4.93
2023-03-05T18:03:04.877Z,4.32
2023-03-05T18:08:06.892Z,4.34
2023-03-05T18:13:08.531Z,4.38
2023-03-05T18:18:10.273Z,4.62
2023-03-05T18:23:13.040Z,5.03
2023-03-05T18:28:15.898Z,5.25
2023-03-05T18:33:21.982Z,5.47
2023-03-05T18:38:25.950Z,5.22
2023-03-05T18:43:27.828Z,5.28
2023-03-05T18:48:29.423Z,5.27
2023-03-05T18:53:30.984Z,5.14
2023-03-05T18:58:32.590Z,5.18
2023-03-05T19:03:34.200Z,5.06
2023-03-05T19:08:36.179Z,5.01
2023-03-05T19:13:44.149Z,5.29
2023-03-05T19:19:19.456Z,5.06
2023-03-05T19:24:24.081Z,4.93
2023-03-05T19:29:28.069Z,4.89
2023-03-05T19:34:29.682Z,5.13
2023-03-05T19:39:31.332Z,5.13
2023-03-05T19:44:33.788Z,5.03
2023-03-05T19:49:35.990Z,5.01
2023-03-05T19:54:37.669Z,5.01
2023-03-05T19:59:39.216Z,5.02
2023-03-05T20:04:40.939Z,5.01
2023-03-05T20:09:42.675Z,4.93
2023-03-05T20:14:44.302Z,5.00
2023-03-05T20:19:45.817Z,5.05
2023-03-05T20:24:47.410Z,4.93
2023-03-05T20:29:48.939Z,5.07
2023-03-05T20:34:51.297Z,5.03
2023-03-05T20:39:52.967Z,5.14
2023-03-05T20:44:54.507Z,4.79
2023-03-05T20:49:56.131Z,4.83
2023-03-05T20:54:58.811Z,4.75
2023-03-05T21:00:00.513Z,4.95
2023-03-05T21:05:02.048Z,4.95
2023-03-05T21:10:04.209Z,4.88
2023-03-05T21:15:07.048Z,4.81
2023-03-05T21:20:12.212Z,4.62
2023-03-05T21:25:21.932Z,4.43
2023-03-05T21:30:31.619Z,4.19
2023-03-05T21:35:34.299Z,4.12
2023-03-05T21:40:43.862Z,4.07
2023-03-05T21:45:48.948Z,4.42
2023-03-05T21:50:51.198Z,4.14
2023-03-05T21:56:22.106Z,4.01
2023-03-05T22:01:23.699Z,4.03
2023-03-05T22:06:25.320Z,4.06
2023-03-05T22:11:26.871Z,4.07
2023-03-05T22:16:28.597Z,3.82
2023-03-05T22:21:30.968Z,3.84
2023-03-05T22:26:38.637Z,3.77
2023-03-05T22:31:40.559Z,3.68
2023-03-05T22:36:42.206Z,3.79
2023-03-05T22:41:43.757Z,3.84
2023-03-05T22:46:45.307Z,3.66
2023-03-05T22:51:46.897Z,3.71
2023-03-05T22:56:48.496Z,3.76
2023-03-05T23:01:50.265Z,4.03
2023-03-05T23:06:51.775Z,3.80
2023-03-05T23:11:53.281Z,3.52
2023-03-05T23:16:54.810Z,3.61
2023-03-05T23:21:56.374Z,3.52
2023-03-05T23:26:58.066Z,3.13
2023-03-05T23:31:59.664Z,3.14
2023-03-05T23:37:01.234Z,3.13
2023-03-05T23:42:02.764Z,3.47
2023-03-05T23:47:04.579Z,3.65
2023-03-05T23:52:06.360Z,3.79
2023-03-05T23:57:08.016Z,3.78
